sensor_id;sensor_type;location;lat;lon;timestamp;temperature;humidity
15262;DHT22;7733;51.554;13.590;2024-03-08T00:00:09;1.60;99.90
15262;DHT22;7733;51.554;13.590;2024-03-08T00:02:40;1.40;99.90
15262;DHT22;7733;51.554;13.590;2024-03-08T00:05:08;1.40;99.90
15262;DHT22;7733;51.554;13.590;2024-03-08T00:07:37;1.40;99.90
15262;DHT22;7733;51.554;13.590;2024-03-08T00:10:04;1.40;99.90
15262;DHT22;7733;51.554;13.590;2024-03-08T00:12:31;1.40;99.90
15262;DHT22;7733;51.554;13.590;2024-03-08T00:14:58;1.40;99.90
15262;DHT22;7733;51.554;13.590;2024-03-08T00:17:24;1.20;99.90
15262;DHT22;7733;51.554;13.590;2024-03-08T00:19:50;1.30;99.90
15262;DHT22;7733;51.554;13.590;2024-03-08T00:22:19;1.40;99.90
15262;DHT22;7733;51.554;13.590;2024-03-08T00:24:45;1.40;99.90
15262;DHT22;7733;51.554;13.590;2024-03-08T00:27:11;1.40;99.90
15262;DHT22;7733;51.554;13.590;2024-03-08T00:29:37;1.40;99.90
15262;DHT22;7733;51.554;13.590;2024-03-08T00:32:05;1.40;99.90
15262;DHT22;7733;51.554;13.590;2024-03-08T00:34:35;1.40;99.90
15262;DHT22;7733;51.554;13.590;2024-03-08T00:37:02;1.40;99.90
15262;DHT22;7733;51.554;13.590;2024-03-08T00:39:29;1.50;99.90
15262;DHT22;7733;51.554;13.590;2024-03-08T00:41:55;1.40;99.90
15262;DHT22;7733;51.554;13.590;2024-03-08T00:44:21;1.40;99.90
15262;DHT22;7733;51.554;13.590;2024-03-08T00:46:46;1.40;99.90
15262;DHT22;7733;51.554;13.590;2024-03-08T00:49:12;1.50;99.90
15262;DHT22;7733;51.554;13.590;2024-03-08T00:51:38;1.50;99.90
15262;DHT22;7733;51.554;13.590;2024-03-08T00:54:04;1.40;99.90
15262;DHT22;7733;51.554;13.590;2024-03-08T00:56:30;1.30;99.90
15262;DHT22;7733;51.554;13.590;2024-03-08T00:58:55;1.10;99.90
15262;DHT22;7733;51.554;13.590;2024-03-08T01:01:21;1.20;99.90
15262;DHT22;7733;51.554;13.590;2024-03-08T01:03:47;1.30;99.90
15262;DHT22;7733;51.554;13.590;2024-03-08T01:06:14;1.30;99.90
15262;DHT22;7733;51.554;13.590;2024-03-08T01:08:40;1.30;99.90
15262;DHT22;7733;51.554;13.590;2024-03-08T01:11:08;1.30;99.90
15262;DHT22;7733;51.554;13.590;2024-03-08T01:13:34;1.40;99.90
15262;DHT22;7733;51.554;13.590;2024-03-08T01:16:01;1.40;99.90
15262;DHT22;7733;51.554;13.590;2024-03-08T01:18:27;1.40;99.90
15262;DHT22;7733;51.554;13.590;2024-03-08T01:20:52;1.40;99.90
15262;DHT22;7733;51.554;13.590;2024-03-08T01:23:18;1.30;99.90
15262;DHT22;7733;51.554;13.590;2024-03-08T01:25:44;1.30;99.90
15262;DHT22;7733;51.554;13.590;2024-03-08T01:28:10;1.30;99.90
15262;DHT22;7733;51.554;13.590;2024-03-08T01:30:35;1.20;99.90
15262;DHT22;7733;51.554;13.590;2024-03-08T01:33:02;1.30;99.90
15262;DHT22;7733;51.554;13.590;2024-03-08T01:35:28;1.40;99.90
15262;DHT22;7733;51.554;13.590;2024-03-08T01:37:54;1.50;99.90
15262;DHT22;7733;51.554;13.590;2024-03-08T01:40:20;1.30;99.90
15262;DHT22;7733;51.554;13.590;2024-03-08T01:42:46;1.40;99.90
15262;DHT22;7733;51.554;13.590;2024-03-08T01:45:13;1.30;99.90
15262;DHT22;7733;51.554;13.590;2024-03-08T01:47:39;1.30;99.90
15262;DHT22;7733;51.554;13.590;2024-03-08T01:50:05;1.30;99.90
15262;DHT22;7733;51.554;13.590;2024-03-08T01:52:34;1.20;99.90
15262;DHT22;7733;51.554;13.590;2024-03-08T01:55:01;1.20;99.90
15262;DHT22;7733;51.554;13.590;2024-03-08T01:57:34;1.30;99.90
15262;DHT22;7733;51.554;13.590;2024-03-08T02:00:02;1.30;99.90
15262;DHT22;7733;51.554;13.590;2024-03-08T02:02:32;1.20;99.90
15262;DHT22;7733;51.554;13.590;2024-03-08T02:05:01;1.00;99.90
15262;DHT22;7733;51.554;13.590;2024-03-08T02:07:27;1.00;99.90
15262;DHT22;7733;51.554;13.590;2024-03-08T02:09:52;1.10;99.90
15262;DHT22;7733;51.554;13.590;2024-03-08T02:12:18;1.10;99.90
15262;DHT22;7733;51.554;13.590;2024-03-08T02:14:46;1.00;99.90
15262;DHT22;7733;51.554;13.590;2024-03-08T02:17:12;1.00;99.90
15262;DHT22;7733;51.554;13.590;2024-03-08T02:19:38;1.10;99.90
15262;DHT22;7733;51.554;13.590;2024-03-08T02:22:04;1.00;99.90
15262;DHT22;7733;51.554;13.590;2024-03-08T02:24:32;1.10;99.90
15262;DHT22;7733;51.554;13.590;2024-03-08T02:26:58;0.90;99.90
15262;DHT22;7733;51.554;13.590;2024-03-08T02:29:24;1.00;99.90
15262;DHT22;7733;51.554;13.590;2024-03-08T02:31:53;0.90;99.90
15262;DHT22;7733;51.554;13.590;2024-03-08T02:34:18;1.00;99.90
15262;DHT22;7733;51.554;13.590;2024-03-08T02:36:45;1.20;99.90
15262;DHT22;7733;51.554;13.590;2024-03-08T02:39:12;1.20;99.90
15262;DHT22;7733;51.554;13.590;2024-03-08T02:41:39;1.10;99.90
15262;DHT22;7733;51.554;13.590;2024-03-08T02:44:05;1.00;99.90
15262;DHT22;7733;51.554;13.590;2024-03-08T02:46:31;1.00;99.90
15262;DHT22;7733;51.554;13.590;2024-03-08T02:48:57;0.90;99.90
15262;DHT22;7733;51.554;13.590;2024-03-08T02:51:23;0.70;99.90
15262;DHT22;7733;51.554;13.590;2024-03-08T02:53:48;0.60;99.90
15262;DHT22;7733;51.554;13.590;2024-03-08T02:56:15;0.60;99.90
15262;DHT22;7733;51.554;13.590;2024-03-08T02:58:42;0.50;99.90
15262;DHT22;7733;51.554;13.590;2024-03-08T03:01:09;0.50;99.90
15262;DHT22;7733;51.554;13.590;2024-03-08T03:03:36;0.60;99.90
15262;DHT22;7733;51.554;13.590;2024-03-08T03:06:02;0.70;99.90
15262;DHT22;7733;51.554;13.590;2024-03-08T03:08:28;0.80;99.90
15262;DHT22;7733;51.554;13.590;2024-03-08T03:10:53;0.70;99.90
15262;DHT22;7733;51.554;13.590;2024-03-08T03:13:22;0.70;99.90
15262;DHT22;7733;51.554;13.590;2024-03-08T03:15:48;0.70;99.90
15262;DHT22;7733;51.554;13.590;2024-03-08T03:18:14;0.70;99.90
15262;DHT22;7733;51.554;13.590;2024-03-08T03:20:41;0.70;99.90
15262;DHT22;7733;51.554;13.590;2024-03-08T03:23:08;0.70;99.90
15262;DHT22;7733;51.554;13.590;2024-03-08T03:25:35;0.70;99.90
15262;DHT22;7733;51.554;13.590;2024-03-08T03:28:04;0.70;99.90
15262;DHT22;7733;51.554;13.590;2024-03-08T03:30:30;0.70;99.90
15262;DHT22;7733;51.554;13.590;2024-03-08T03:32:59;0.60;99.90
15262;DHT22;7733;51.554;13.590;2024-03-08T03:35:27;0.60;99.90
15262;DHT22;7733;51.554;13.590;2024-03-08T03:37:54;0.70;99.90
15262;DHT22;7733;51.554;13.590;2024-03-08T03:40:29;0.70;99.90
15262;DHT22;7733;51.554;13.590;2024-03-08T03:42:56;0.50;99.90
15262;DHT22;7733;51.554;13.590;2024-03-08T03:45:23;0.50;99.90
15262;DHT22;7733;51.554;13.590;2024-03-08T03:47:49;0.40;99.90
15262;DHT22;7733;51.554;13.590;2024-03-08T03:50:15;0.50;99.90
15262;DHT22;7733;51.554;13.590;2024-03-08T03:52:41;0.50;99.90
15262;DHT22;7733;51.554;13.590;2024-03-08T03:55:08;0.40;99.90
15262;DHT22;7733;51.554;13.590;2024-03-08T03:57:34;0.30;99.90
15262;DHT22;7733;51.554;13.590;2024-03-08T03:59:59;0.30;99.90
15262;DHT22;7733;51.554;13.590;2024-03-08T04:02:25;0.40;99.90
15262;DHT22;7733;51.554;13.590;2024-03-08T04:04:52;0.50;99.90
15262;DHT22;7733;51.554;13.590;2024-03-08T04:07:20;0.50;99.90
15262;DHT22;7733;51.554;13.590;2024-03-08T04:09:46;0.50;99.90
15262;DHT22;7733;51.554;13.590;2024-03-08T04:12:12;0.50;99.90
15262;DHT22;7733;51.554;13.590;2024-03-08T04:14:41;0.60;99.90
15262;DHT22;7733;51.554;13.590;2024-03-08T04:17:08;0.60;99.90
15262;DHT22;7733;51.554;13.590;2024-03-08T04:19:37;0.50;99.90
15262;DHT22;7733;51.554;13.590;2024-03-08T04:22:05;0.50;99.90
15262;DHT22;7733;51.554;13.590;2024-03-08T04:24:33;0.30;99.90
15262;DHT22;7733;51.554;13.590;2024-03-08T04:26:59;0.30;99.90
15262;DHT22;7733;51.554;13.590;2024-03-08T04:29:25;0.30;99.90
15262;DHT22;7733;51.554;13.590;2024-03-08T04:31:51;0.30;99.90
15262;DHT22;7733;51.554;13.590;2024-03-08T04:34:20;0.30;99.90
15262;DHT22;7733;51.554;13.590;2024-03-08T04:36:48;0.40;99.90
15262;DHT22;7733;51.554;13.590;2024-03-08T04:39:14;0.40;99.90
15262;DHT22;7733;51.554;13.590;2024-03-08T04:41:44;0.40;99.90
15262;DHT22;7733;51.554;13.590;2024-03-08T04:44:11;0.40;99.90
15262;DHT22;7733;51.554;13.590;2024-03-08T04:46:38;0.30;99.90
15262;DHT22;7733;51.554;13.590;2024-03-08T04:49:04;0.30;99.90
15262;DHT22;7733;51.554;13.590;2024-03-08T04:51:29;0.30;99.90
15262;DHT22;7733;51.554;13.590;2024-03-08T04:53:55;0.40;99.90
15262;DHT22;7733;51.554;13.590;2024-03-08T04:56:22;0.50;99.90
15262;DHT22;7733;51.554;13.590;2024-03-08T04:58:48;0.40;99.90
15262;DHT22;7733;51.554;13.590;2024-03-08T05:01:14;0.40;99.90
15262;DHT22;7733;51.554;13.590;2024-03-08T05:03:40;0.30;99.90
15262;DHT22;7733;51.554;13.590;2024-03-08T05:06:06;0.20;99.90
15262;DHT22;7733;51.554;13.590;2024-03-08T05:08:31;0.30;99.90
15262;DHT22;7733;51.554;13.590;2024-03-08T05:10:58;0.40;99.90
15262;DHT22;7733;51.554;13.590;2024-03-08T05:13:26;0.30;99.90
15262;DHT22;7733;51.554;13.590;2024-03-08T05:15:52;0.30;99.90
15262;DHT22;7733;51.554;13.590;2024-03-08T05:18:18;0.20;99.90
15262;DHT22;7733;51.554;13.590;2024-03-08T05:20:43;0.30;99.90
15262;DHT22;7733;51.554;13.590;2024-03-08T05:23:09;0.30;99.90
15262;DHT22;7733;51.554;13.590;2024-03-08T05:25:35;0.20;99.90
15262;DHT22;7733;51.554;13.590;2024-03-08T05:28:01;0.20;99.90
15262;DHT22;7733;51.554;13.590;2024-03-08T05:30:27;0.30;99.90
15262;DHT22;7733;51.554;13.590;2024-03-08T05:32:52;0.30;99.90
15262;DHT22;7733;51.554;13.590;2024-03-08T05:35:18;0.30;99.90
15262;DHT22;7733;51.554;13.590;2024-03-08T05:37:44;0.40;99.90
15262;DHT22;7733;51.554;13.590;2024-03-08T05:40:10;0.40;99.90
15262;DHT22;7733;51.554;13.590;2024-03-08T05:42:36;0.30;99.90
15262;DHT22;7733;51.554;13.590;2024-03-08T05:45:03;0.30;99.90
15262;DHT22;7733;51.554;13.590;2024-03-08T05:47:29;0.30;99.90
15262;DHT22;7733;51.554;13.590;2024-03-08T05:49:55;0.30;99.90
15262;DHT22;7733;51.554;13.590;2024-03-08T05:52:20;0.30;99.90
15262;DHT22;7733;51.554;13.590;2024-03-08T05:54:46;0.30;99.90
15262;DHT22;7733;51.554;13.590;2024-03-08T05:57:12;0.20;99.90
15262;DHT22;7733;51.554;13.590;2024-03-08T05:59:39;0.20;99.90
15262;DHT22;7733;51.554;13.590;2024-03-08T06:02:05;0.30;99.90
15262;DHT22;7733;51.554;13.590;2024-03-08T06:04:31;0.20;99.90
15262;DHT22;7733;51.554;13.590;2024-03-08T06:06:57;0.10;99.90
15262;DHT22;7733;51.554;13.590;2024-03-08T06:09:24;0.10;99.90
15262;DHT22;7733;51.554;13.590;2024-03-08T06:11:54;0.00;99.90
15262;DHT22;7733;51.554;13.590;2024-03-08T06:14:20;0.00;99.90
15262;DHT22;7733;51.554;13.590;2024-03-08T06:16:46;0.10;99.90
15262;DHT22;7733;51.554;13.590;2024-03-08T06:19:12;0.20;99.90
15262;DHT22;7733;51.554;13.590;2024-03-08T06:21:39;0.20;99.90
15262;DHT22;7733;51.554;13.590;2024-03-08T06:24:05;0.20;99.90
15262;DHT22;7733;51.554;13.590;2024-03-08T06:26:31;0.20;99.90
15262;DHT22;7733;51.554;13.590;2024-03-08T06:28:57;0.20;99.90
15262;DHT22;7733;51.554;13.590;2024-03-08T06:31:23;0.20;99.90
15262;DHT22;7733;51.554;13.590;2024-03-08T06:33:49;0.30;99.90
15262;DHT22;7733;51.554;13.590;2024-03-08T06:36:18;0.40;99.90
15262;DHT22;7733;51.554;13.590;2024-03-08T06:38:47;0.50;99.90
15262;DHT22;7733;51.554;13.590;2024-03-08T06:41:14;0.60;99.90
15262;DHT22;7733;51.554;13.590;2024-03-08T06:43:44;0.60;99.90
15262;DHT22;7733;51.554;13.590;2024-03-08T06:46:11;0.70;99.90
15262;DHT22;7733;51.554;13.590;2024-03-08T06:48:40;0.80;99.90
15262;DHT22;7733;51.554;13.590;2024-03-08T06:51:05;0.90;99.90
15262;DHT22;7733;51.554;13.590;2024-03-08T06:53:32;0.90;99.90
15262;DHT22;7733;51.554;13.590;2024-03-08T06:56:00;0.90;99.90
15262;DHT22;7733;51.554;13.590;2024-03-08T06:58:27;1.10;99.90
15262;DHT22;7733;51.554;13.590;2024-03-08T07:00:53;1.10;99.90
15262;DHT22;7733;51.554;13.590;2024-03-08T07:03:23;1.10;99.90
15262;DHT22;7733;51.554;13.590;2024-03-08T07:05:49;1.20;99.90
15262;DHT22;7733;51.554;13.590;2024-03-08T07:08:15;1.30;99.90
15262;DHT22;7733;51.554;13.590;2024-03-08T07:10:42;1.30;99.90
15262;DHT22;7733;51.554;13.590;2024-03-08T07:13:08;1.30;99.90
15262;DHT22;7733;51.554;13.590;2024-03-08T07:15:34;1.30;99.90
15262;DHT22;7733;51.554;13.590;2024-03-08T07:18:00;1.30;99.90
15262;DHT22;7733;51.554;13.590;2024-03-08T07:20:26;1.30;99.90
15262;DHT22;7733;51.554;13.590;2024-03-08T07:22:54;1.50;99.90
15262;DHT22;7733;51.554;13.590;2024-03-08T07:25:20;1.50;99.90
15262;DHT22;7733;51.554;13.590;2024-03-08T07:27:54;1.60;99.90
15262;DHT22;7733;51.554;13.590;2024-03-08T07:30:22;1.70;99.90
15262;DHT22;7733;51.554;13.590;2024-03-08T07:33:07;1.90;99.90
15262;DHT22;7733;51.554;13.590;2024-03-08T07:35:33;1.90;99.90
15262;DHT22;7733;51.554;13.590;2024-03-08T07:38:09;2.00;99.90
15262;DHT22;7733;51.554;13.590;2024-03-08T07:40:39;2.00;99.90
15262;DHT22;7733;51.554;13.590;2024-03-08T07:43:14;2.10;99.90
15262;DHT22;7733;51.554;13.590;2024-03-08T07:45:40;2.10;99.90
15262;DHT22;7733;51.554;13.590;2024-03-08T07:48:06;2.20;99.90
15262;DHT22;7733;51.554;13.590;2024-03-08T07:50:38;2.30;99.90
15262;DHT22;7733;51.554;13.590;2024-03-08T07:53:05;2.40;99.90
15262;DHT22;7733;51.554;13.590;2024-03-08T07:55:33;2.40;99.90
15262;DHT22;7733;51.554;13.590;2024-03-08T07:58:00;2.50;99.90
15262;DHT22;7733;51.554;13.590;2024-03-08T08:00:26;2.60;99.90
15262;DHT22;7733;51.554;13.590;2024-03-08T08:02:53;2.60;99.90
15262;DHT22;7733;51.554;13.590;2024-03-08T08:05:19;2.70;99.90
15262;DHT22;7733;51.554;13.590;2024-03-08T08:07:45;2.80;99.90
15262;DHT22;7733;51.554;13.590;2024-03-08T08:10:14;2.90;99.90
15262;DHT22;7733;51.554;13.590;2024-03-08T08:12:50;3.00;99.90
15262;DHT22;7733;51.554;13.590;2024-03-08T08:15:19;3.10;99.90
15262;DHT22;7733;51.554;13.590;2024-03-08T08:17:46;3.20;99.90
15262;DHT22;7733;51.554;13.590;2024-03-08T08:20:13;3.30;99.90
15262;DHT22;7733;51.554;13.590;2024-03-08T08:22:39;3.50;99.90
15262;DHT22;7733;51.554;13.590;2024-03-08T08:25:06;3.60;99.90
15262;DHT22;7733;51.554;13.590;2024-03-08T08:27:32;3.80;99.90
15262;DHT22;7733;51.554;13.590;2024-03-08T08:29:58;3.80;99.90
15262;DHT22;7733;51.554;13.590;2024-03-08T08:32:24;4.00;99.90
15262;DHT22;7733;51.554;13.590;2024-03-08T08:34:50;4.10;99.90
15262;DHT22;7733;51.554;13.590;2024-03-08T08:37:16;4.30;99.90
15262;DHT22;7733;51.554;13.590;2024-03-08T08:39:42;4.40;99.90
15262;DHT22;7733;51.554;13.590;2024-03-08T08:42:08;4.40;99.90
15262;DHT22;7733;51.554;13.590;2024-03-08T08:44:35;4.50;99.90
15262;DHT22;7733;51.554;13.590;2024-03-08T08:47:01;4.70;99.90
15262;DHT22;7733;51.554;13.590;2024-03-08T08:49:29;4.80;99.90
15262;DHT22;7733;51.554;13.590;2024-03-08T08:51:56;4.90;99.90
15262;DHT22;7733;51.554;13.590;2024-03-08T08:54:24;5.00;99.90
15262;DHT22;7733;51.554;13.590;2024-03-08T08:56:50;5.10;99.90
15262;DHT22;7733;51.554;13.590;2024-03-08T08:59:16;5.20;99.90
15262;DHT22;7733;51.554;13.590;2024-03-08T09:01:46;5.30;99.90
15262;DHT22;7733;51.554;13.590;2024-03-08T09:04:15;5.40;99.90
15262;DHT22;7733;51.554;13.590;2024-03-08T09:06:42;5.40;99.90
15262;DHT22;7733;51.554;13.590;2024-03-08T09:09:07;5.40;99.90
15262;DHT22;7733;51.554;13.590;2024-03-08T09:11:38;5.50;99.90
15262;DHT22;7733;51.554;13.590;2024-03-08T09:14:07;5.60;99.90
15262;DHT22;7733;51.554;13.590;2024-03-08T09:16:33;5.80;99.90
15262;DHT22;7733;51.554;13.590;2024-03-08T09:18:59;5.90;99.90
15262;DHT22;7733;51.554;13.590;2024-03-08T09:21:25;6.00;99.90
15262;DHT22;7733;51.554;13.590;2024-03-08T09:23:52;6.10;99.90
15262;DHT22;7733;51.554;13.590;2024-03-08T09:26:19;6.20;99.90
15262;DHT22;7733;51.554;13.590;2024-03-08T09:28:45;6.40;99.90
15262;DHT22;7733;51.554;13.590;2024-03-08T09:31:11;6.40;99.90
15262;DHT22;7733;51.554;13.590;2024-03-08T09:33:37;6.50;99.90
15262;DHT22;7733;51.554;13.590;2024-03-08T09:36:05;6.60;99.90
15262;DHT22;7733;51.554;13.590;2024-03-08T09:38:33;6.80;99.90
15262;DHT22;7733;51.554;13.590;2024-03-08T09:41:00;6.80;99.90
15262;DHT22;7733;51.554;13.590;2024-03-08T09:43:28;6.90;99.90
15262;DHT22;7733;51.554;13.590;2024-03-08T09:45:55;7.10;99.90
15262;DHT22;7733;51.554;13.590;2024-03-08T09:48:22;7.40;99.90
15262;DHT22;7733;51.554;13.590;2024-03-08T09:50:48;7.50;99.90
15262;DHT22;7733;51.554;13.590;2024-03-08T09:53:15;7.30;99.90
15262;DHT22;7733;51.554;13.590;2024-03-08T09:55:42;7.20;99.90
15262;DHT22;7733;51.554;13.590;2024-03-08T09:58:11;7.30;99.90
15262;DHT22;7733;51.554;13.590;2024-03-08T10:00:53;7.30;99.90
15262;DHT22;7733;51.554;13.590;2024-03-08T10:03:20;7.50;99.90
15262;DHT22;7733;51.554;13.590;2024-03-08T10:05:46;7.70;99.90
15262;DHT22;7733;51.554;13.590;2024-03-08T10:08:12;7.70;99.90
15262;DHT22;7733;51.554;13.590;2024-03-08T10:10:39;7.90;99.90
15262;DHT22;7733;51.554;13.590;2024-03-08T10:13:08;7.80;99.90
15262;DHT22;7733;51.554;13.590;2024-03-08T10:15:36;7.80;99.50
15262;DHT22;7733;51.554;13.590;2024-03-08T10:18:04;7.80;99.40
15262;DHT22;7733;51.554;13.590;2024-03-08T10:20:31;8.00;99.50
15262;DHT22;7733;51.554;13.590;2024-03-08T10:23:00;8.00;98.50
15262;DHT22;7733;51.554;13.590;2024-03-08T10:25:29;8.10;98.30
15262;DHT22;7733;51.554;13.590;2024-03-08T10:27:57;8.40;97.80
15262;DHT22;7733;51.554;13.590;2024-03-08T10:30:23;8.60;97.90
15262;DHT22;7733;51.554;13.590;2024-03-08T10:32:49;8.60;97.20
15262;DHT22;7733;51.554;13.590;2024-03-08T10:35:17;8.80;96.90
15262;DHT22;7733;51.554;13.590;2024-03-08T10:37:47;8.70;95.80
15262;DHT22;7733;51.554;13.590;2024-03-08T10:40:19;8.70;95.50
15262;DHT22;7733;51.554;13.590;2024-03-08T10:45:39;8.70;93.10
15262;DHT22;7733;51.554;13.590;2024-03-08T10:48:29;8.60;93.00
15262;DHT22;7733;51.554;13.590;2024-03-08T10:51:02;8.80;92.90
15262;DHT22;7733;51.554;13.590;2024-03-08T10:53:29;8.90;92.50
15262;DHT22;7733;51.554;13.590;2024-03-08T10:55:58;9.00;92.50
15262;DHT22;7733;51.554;13.590;2024-03-08T10:58:27;9.20;92.70
15262;DHT22;7733;51.554;13.590;2024-03-08T11:00:57;9.40;92.20
15262;DHT22;7733;51.554;13.590;2024-03-08T11:06:41;9.60;91.50
15262;DHT22;7733;51.554;13.590;2024-03-08T11:09:36;9.30;90.70
15262;DHT22;7733;51.554;13.590;2024-03-08T11:12:23;9.40;90.70
15262;DHT22;7733;51.554;13.590;2024-03-08T11:14:52;9.40;90.50
15262;DHT22;7733;51.554;13.590;2024-03-08T11:19:56;9.60;89.90
15262;DHT22;7733;51.554;13.590;2024-03-08T11:22:27;10.00;90.20
15262;DHT22;7733;51.554;13.590;2024-03-08T11:25:02;9.80;89.10
15262;DHT22;7733;51.554;13.590;2024-03-08T11:27:33;9.80;88.80
15262;DHT22;7733;51.554;13.590;2024-03-08T11:30:06;9.90;87.20
15262;DHT22;7733;51.554;13.590;2024-03-08T11:32:37;9.60;84.90
15262;DHT22;7733;51.554;13.590;2024-03-08T11:35:07;9.70;86.40
15262;DHT22;7733;51.554;13.590;2024-03-08T11:37:45;9.90;87.80
15262;DHT22;7733;51.554;13.590;2024-03-08T11:40:14;10.30;87.30
15262;DHT22;7733;51.554;13.590;2024-03-08T11:42:48;10.20;85.20
15262;DHT22;7733;51.554;13.590;2024-03-08T11:45:18;10.20;86.00
15262;DHT22;7733;51.554;13.590;2024-03-08T11:47:47;10.20;83.60
15262;DHT22;7733;51.554;13.590;2024-03-08T11:50:16;10.00;83.90
15262;DHT22;7733;51.554;13.590;2024-03-08T11:52:44;10.10;84.00
15262;DHT22;7733;51.554;13.590;2024-03-08T11:55:11;10.10;82.80
15262;DHT22;7733;51.554;13.590;2024-03-08T11:57:39;10.30;83.70
15262;DHT22;7733;51.554;13.590;2024-03-08T12:00:05;10.20;82.00
15262;DHT22;7733;51.554;13.590;2024-03-08T12:02:33;10.10;81.80
15262;DHT22;7733;51.554;13.590;2024-03-08T12:05:04;10.20;82.80
15262;DHT22;7733;51.554;13.590;2024-03-08T12:07:35;10.30;81.80
15262;DHT22;7733;51.554;13.590;2024-03-08T12:10:18;10.50;82.20
15262;DHT22;7733;51.554;13.590;2024-03-08T12:12:47;10.60;81.50
15262;DHT22;7733;51.554;13.590;2024-03-08T12:15:17;10.50;80.10
15262;DHT22;7733;51.554;13.590;2024-03-08T12:17:49;10.60;80.10
15262;DHT22;7733;51.554;13.590;2024-03-08T12:20:19;10.50;80.20
15262;DHT22;7733;51.554;13.590;2024-03-08T12:22:48;10.70;79.90
15262;DHT22;7733;51.554;13.590;2024-03-08T12:25:15;10.70;79.60
15262;DHT22;7733;51.554;13.590;2024-03-08T12:27:42;10.70;79.30
15262;DHT22;7733;51.554;13.590;2024-03-08T12:30:22;10.80;80.00
15262;DHT22;7733;51.554;13.590;2024-03-08T12:33:00;10.60;79.20
15262;DHT22;7733;51.554;13.590;2024-03-08T12:35:30;10.50;79.80
15262;DHT22;7733;51.554;13.590;2024-03-08T12:37:58;10.70;80.20
15262;DHT22;7733;51.554;13.590;2024-03-08T12:40:30;10.70;80.50
15262;DHT22;7733;51.554;13.590;2024-03-08T12:42:58;10.50;79.80
15262;DHT22;7733;51.554;13.590;2024-03-08T12:45:24;10.50;79.80
15262;DHT22;7733;51.554;13.590;2024-03-08T12:47:51;10.80;80.00
15262;DHT22;7733;51.554;13.590;2024-03-08T12:50:19;10.80;80.00
15262;DHT22;7733;51.554;13.590;2024-03-08T12:52:48;10.80;80.30
15262;DHT22;7733;51.554;13.590;2024-03-08T12:55:15;10.90;80.90
15262;DHT22;7733;51.554;13.590;2024-03-08T12:57:43;10.80;79.70
15262;DHT22;7733;51.554;13.590;2024-03-08T13:00:09;10.80;79.10
15262;DHT22;7733;51.554;13.590;2024-03-08T13:02:45;10.60;79.00
15262;DHT22;7733;51.554;13.590;2024-03-08T13:05:15;10.70;80.20
15262;DHT22;7733;51.554;13.590;2024-03-08T13:07:41;10.80;80.00
15262;DHT22;7733;51.554;13.590;2024-03-08T13:10:14;10.90;80.20
15262;DHT22;7733;51.554;13.590;2024-03-08T13:12:44;11.10;80.50
15262;DHT22;7733;51.554;13.590;2024-03-08T13:15:11;11.10;79.90
15262;DHT22;7733;51.554;13.590;2024-03-08T13:17:41;11.10;80.80
15262;DHT22;7733;51.554;13.590;2024-03-08T13:20:08;11.00;80.60
15262;DHT22;7733;51.554;13.590;2024-03-08T13:22:35;11.10;81.00
15262;DHT22;7733;51.554;13.590;2024-03-08T13:25:02;11.00;80.10
15262;DHT22;7733;51.554;13.590;2024-03-08T13:27:28;11.00;81.00
15262;DHT22;7733;51.554;13.590;2024-03-08T13:29:54;11.00;81.80
15262;DHT22;7733;51.554;13.590;2024-03-08T13:32:20;11.20;81.40
15262;DHT22;7733;51.554;13.590;2024-03-08T13:34:47;11.30;81.40
15262;DHT22;7733;51.554;13.590;2024-03-08T13:37:13;11.30;80.70
15262;DHT22;7733;51.554;13.590;2024-03-08T13:39:41;11.20;80.20
15262;DHT22;7733;51.554;13.590;2024-03-08T13:42:15;11.20;80.90
15262;DHT22;7733;51.554;13.590;2024-03-08T13:44:48;11.30;81.50
15262;DHT22;7733;51.554;13.590;2024-03-08T13:47:18;11.30;81.10
15262;DHT22;7733;51.554;13.590;2024-03-08T13:49:44;11.30;80.90
15262;DHT22;7733;51.554;13.590;2024-03-08T13:52:11;11.30;81.50
15262;DHT22;7733;51.554;13.590;2024-03-08T13:54:41;11.20;81.60
15262;DHT22;7733;51.554;13.590;2024-03-08T13:57:08;11.40;82.70
15262;DHT22;7733;51.554;13.590;2024-03-08T13:59:34;11.40;81.90
15262;DHT22;7733;51.554;13.590;2024-03-08T14:02:01;11.40;82.10
15262;DHT22;7733;51.554;13.590;2024-03-08T14:04:30;11.10;82.10
15262;DHT22;7733;51.554;13.590;2024-03-08T14:06:56;11.10;82.80
15262;DHT22;7733;51.554;13.590;2024-03-08T14:09:26;11.20;83.00
15262;DHT22;7733;51.554;13.590;2024-03-08T14:11:54;11.30;83.00
15262;DHT22;7733;51.554;13.590;2024-03-08T14:14:21;11.00;83.00
15262;DHT22;7733;51.554;13.590;2024-03-08T14:16:49;11.00;83.90
15262;DHT22;7733;51.554;13.590;2024-03-08T14:19:19;11.10;83.10
15262;DHT22;7733;51.554;13.590;2024-03-08T14:21:45;11.10;84.00
15262;DHT22;7733;51.554;13.590;2024-03-08T14:24:10;11.10;84.20
15262;DHT22;7733;51.554;13.590;2024-03-08T14:26:36;11.20;84.90
15262;DHT22;7733;51.554;13.590;2024-03-08T14:29:04;11.10;84.10
15262;DHT22;7733;51.554;13.590;2024-03-08T14:31:31;10.90;84.50
15262;DHT22;7733;51.554;13.590;2024-03-08T14:33:57;10.70;84.60
15262;DHT22;7733;51.554;13.590;2024-03-08T14:36:24;10.70;85.10
15262;DHT22;7733;51.554;13.590;2024-03-08T14:38:51;10.70;85.60
15262;DHT22;7733;51.554;13.590;2024-03-08T14:41:18;10.80;86.20
15262;DHT22;7733;51.554;13.590;2024-03-08T14:43:44;10.80;85.90
15262;DHT22;7733;51.554;13.590;2024-03-08T14:46:13;10.80;85.80
15262;DHT22;7733;51.554;13.590;2024-03-08T14:48:49;10.80;86.20
15262;DHT22;7733;51.554;13.590;2024-03-08T14:51:21;10.80;86.70
15262;DHT22;7733;51.554;13.590;2024-03-08T14:53:48;11.00;86.60
15262;DHT22;7733;51.554;13.590;2024-03-08T14:56:15;10.70;86.60
15262;DHT22;7733;51.554;13.590;2024-03-08T14:58:45;10.60;86.60
15262;DHT22;7733;51.554;13.590;2024-03-08T15:01:15;10.50;86.80
15262;DHT22;7733;51.554;13.590;2024-03-08T15:03:44;10.60;87.60
15262;DHT22;7733;51.554;13.590;2024-03-08T15:06:10;10.70;87.90
15262;DHT22;7733;51.554;13.590;2024-03-08T15:08:37;10.70;88.10
15262;DHT22;7733;51.554;13.590;2024-03-08T15:11:04;10.60;88.00
15262;DHT22;7733;51.554;13.590;2024-03-08T15:13:34;10.40;88.20
15262;DHT22;7733;51.554;13.590;2024-03-08T15:16:08;10.50;88.40
15262;DHT22;7733;51.554;13.590;2024-03-08T15:18:34;10.60;89.00
15262;DHT22;7733;51.554;13.590;2024-03-08T15:21:05;10.50;89.20
15262;DHT22;7733;51.554;13.590;2024-03-08T15:23:35;10.40;89.10
15262;DHT22;7733;51.554;13.590;2024-03-08T15:26:02;10.40;89.80
15262;DHT22;7733;51.554;13.590;2024-03-08T15:28:32;10.50;90.00
15262;DHT22;7733;51.554;13.590;2024-03-08T15:31:06;10.40;89.80
15262;DHT22;7733;51.554;13.590;2024-03-08T15:33:33;10.20;90.00
15262;DHT22;7733;51.554;13.590;2024-03-08T15:36:00;10.30;90.00
15262;DHT22;7733;51.554;13.590;2024-03-08T15:38:35;10.30;90.00
15262;DHT22;7733;51.554;13.590;2024-03-08T15:41:02;10.30;90.20
15262;DHT22;7733;51.554;13.590;2024-03-08T15:43:41;10.30;90.40
15262;DHT22;7733;51.554;13.590;2024-03-08T15:46:08;10.20;90.30
15262;DHT22;7733;51.554;13.590;2024-03-08T15:48:35;10.30;90.60
15262;DHT22;7733;51.554;13.590;2024-03-08T15:51:06;10.20;90.80
15262;DHT22;7733;51.554;13.590;2024-03-08T15:53:33;10.20;90.70